createdAt,value
2022-09-28T00:01:07.652Z,10.38
2022-09-28T00:03:35.932Z,10.31
2022-09-28T00:06:05.309Z,10.42
2022-09-28T00:08:33.238Z,10.50
2022-09-28T00:11:03.904Z,10.47
2022-09-28T00:13:33.031Z,10.49
2022-09-28T00:16:02.924Z,10.51
2022-09-28T00:18:31.840Z,10.50
2022-09-28T00:21:04.837Z,10.48
2022-09-28T00:23:33.260Z,10.48
2022-09-28T00:26:05.764Z,10.48
2022-09-28T00:28:34.121Z,10.59
2022-09-28T00:31:02.222Z,10.60
2022-09-28T00:33:30.213Z,10.36
2022-09-28T00:35:58.951Z,10.50
2022-09-28T00:38:31.177Z,10.40
2022-09-28T00:40:59.683Z,10.05
2022-09-28T00:43:29.249Z,10.27
2022-09-28T00:46:01.389Z,10.22
2022-09-28T00:48:33.704Z,10.25
2022-09-28T00:51:06.950Z,10.20
2022-09-28T00:53:37.948Z,10.18
2022-09-28T00:56:11.434Z,10.08
2022-09-28T00:58:45.330Z,10.17
2022-09-28T01:01:13.252Z,10.13
2022-09-28T01:03:45.429Z,10.01
2022-09-28T01:06:19.265Z,10.15
2022-09-28T01:08:47.064Z,10.13
2022-09-28T01:11:15.007Z,10.12
2022-09-28T01:13:46.944Z,10.09
2022-09-28T01:16:25.254Z,10.09
2022-09-28T01:19:08.431Z,10.13
2022-09-28T01:21:49.178Z,10.11
2022-09-28T01:24:34.647Z,10.10
2022-09-28T01:27:11.681Z,10.11
2022-09-28T01:29:47.251Z,10.07
2022-09-28T01:32:29.596Z,9.98
2022-09-28T01:35:03.117Z,9.95
2022-09-28T01:37:38.993Z,9.94
2022-09-28T01:40:10.163Z,10.01
2022-09-28T01:42:43.074Z,9.97
2022-09-28T01:45:17.964Z,9.99
2022-09-28T01:47:48.617Z,9.86
2022-09-28T01:50:19.637Z,9.86
2022-09-28T01:52:53.564Z,9.83
2022-09-28T01:55:26.813Z,9.89
2022-09-28T01:58:02.040Z,9.85
2022-09-28T02:00:30.388Z,9.85
2022-09-28T02:03:03.105Z,9.86
2022-09-28T02:05:34.087Z,9.85
2022-09-28T02:08:07.586Z,9.90
2022-09-28T02:10:41.422Z,9.75
2022-09-28T02:13:16.520Z,9.87
2022-09-28T02:15:50.606Z,9.90
2022-09-28T02:18:19.074Z,9.84
2022-09-28T02:20:53.385Z,9.86
2022-09-28T02:23:23.605Z,9.83
2022-09-28T02:25:55.075Z,9.91
2022-09-28T02:28:24.473Z,9.80
2022-09-28T02:30:52.467Z,9.92
2022-09-28T02:33:24.408Z,9.88
2022-09-28T02:35:52.672Z,9.94
2022-09-28T02:38:20.605Z,9.86
2022-09-28T02:41:02.304Z,9.77
2022-09-28T02:43:40.536Z,9.81
2022-09-28T02:46:23.512Z,9.73
2022-09-28T02:49:20.848Z,9.79
2022-09-28T02:52:04.364Z,9.82
2022-09-28T02:54:46.828Z,9.73
2022-09-28T02:57:29.471Z,9.75
2022-09-28T03:00:08.331Z,9.83
2022-09-28T03:02:44.953Z,9.86
2022-09-28T03:05:17.961Z,9.86
2022-09-28T03:07:53.956Z,9.77
2022-09-28T03:10:26.722Z,9.76
2022-09-28T03:12:55.899Z,9.78
2022-09-28T03:15:28.607Z,9.82
2022-09-28T03:17:57.405Z,9.86
2022-09-28T03:20:26.053Z,9.84
2022-09-28T03:23:19.672Z,9.68
2022-09-28T03:25:42.010Z,9.82
2022-09-28T03:28:09.956Z,9.75
2022-09-28T03:30:39.439Z,9.83
2022-09-28T03:33:07.376Z,9.71
2022-09-28T03:35:35.295Z,9.73
2022-09-28T03:38:03.203Z,9.66
2022-09-28T03:40:31.237Z,9.76
2022-09-28T03:43:00.104Z,9.74
2022-09-28T03:45:28.185Z,9.75
2022-09-28T03:47:57.769Z,9.76
2022-09-28T03:50:25.797Z,9.63
2022-09-28T03:52:53.712Z,9.52
2022-09-28T03:55:21.659Z,9.59
2022-09-28T03:57:55.698Z,9.62
2022-09-28T04:00:24.023Z,9.56
2022-09-28T04:02:51.988Z,9.60
2022-09-28T04:05:21.332Z,9.43
2022-09-28T04:07:49.219Z,9.41
2022-09-28T04:10:17.408Z,9.61
2022-09-28T04:12:46.021Z,9.63
2022-09-28T04:15:14.101Z,9.63
2022-09-28T04:17:42.104Z,9.51
2022-09-28T04:20:10.625Z,9.56
2022-09-28T04:22:39.987Z,9.57
2022-09-28T04:25:08.428Z,9.52
2022-09-28T04:27:53.637Z,9.67
2022-09-28T04:30:22.025Z,9.59
2022-09-28T04:32:50.325Z,9.71
2022-09-28T04:35:18.385Z,9.61
2022-09-28T04:37:47.710Z,9.71
2022-09-28T04:40:15.881Z,9.71
2022-09-28T04:42:43.897Z,9.81
2022-09-28T04:45:12.334Z,9.82
2022-09-28T04:47:40.339Z,9.84
2022-09-28T04:50:09.114Z,9.83
2022-09-28T04:52:37.742Z,9.91
2022-09-28T04:55:08.243Z,9.99
2022-09-28T04:57:36.206Z,10.06
2022-09-28T05:00:05.505Z,10.05
2022-09-28T05:02:33.686Z,10.06
2022-09-28T05:05:01.711Z,10.02
2022-09-28T05:07:31.303Z,10.09
2022-09-28T05:10:00.752Z,10.12
2022-09-28T05:12:30.088Z,10.12
2022-09-28T05:14:58.004Z,10.14
2022-09-28T05:17:25.884Z,10.12
2022-09-28T05:19:53.787Z,10.11
2022-09-28T05:22:21.712Z,10.09
2022-09-28T05:24:49.641Z,10.07
2022-09-28T05:27:17.627Z,10.14
2022-09-28T05:29:46.950Z,10.14
2022-09-28T05:32:15.968Z,10.07
2022-09-28T05:34:43.918Z,10.19
2022-09-28T05:37:11.825Z,10.20
2022-09-28T05:39:39.814Z,10.19
2022-09-28T05:42:08.529Z,10.19
2022-09-28T05:44:38.490Z,10.19
2022-09-28T05:47:07.835Z,10.31
2022-09-28T05:49:35.861Z,10.32
2022-09-28T05:52:04.060Z,10.28
2022-09-28T05:54:32.245Z,10.26
2022-09-28T05:57:00.205Z,10.19
2022-09-28T05:59:30.378Z,10.30
2022-09-28T06:01:58.375Z,10.29
2022-09-28T06:04:28.032Z,10.13
2022-09-28T06:06:56.009Z,10.24
2022-09-28T06:09:26.076Z,10.35
2022-09-28T06:11:54.270Z,10.37
2022-09-28T06:14:22.380Z,10.36
2022-09-28T06:16:55.940Z,10.27
2022-09-28T06:19:24.242Z,10.32
2022-09-28T06:21:53.552Z,10.26
2022-09-28T06:24:21.508Z,10.20
2022-09-28T06:26:49.421Z,10.25
2022-09-28T06:29:19.854Z,10.25
2022-09-28T06:31:48.131Z,10.21
2022-09-28T06:34:16.160Z,10.27
2022-09-28T06:36:44.104Z,10.19
2022-09-28T06:39:13.417Z,10.25
2022-09-28T06:41:41.360Z,10.26
2022-09-28T06:44:09.377Z,10.23
2022-09-28T06:46:39.330Z,10.22
2022-09-28T06:49:09.383Z,10.24
2022-09-28T06:51:37.782Z,10.29
2022-09-28T06:54:05.925Z,10.27
2022-09-28T06:56:35.298Z,10.17
2022-09-28T06:59:03.307Z,10.18
2022-09-28T07:01:31.450Z,10.24
2022-09-28T07:04:01.963Z,10.12
2022-09-28T07:06:31.586Z,9.94
2022-09-28T07:09:22.612Z,10.07
2022-09-28T07:11:52.786Z,10.06
2022-09-28T07:14:40.789Z,9.97
2022-09-28T07:17:14.047Z,9.93
2022-09-28T07:19:42.655Z,9.93
2022-09-28T07:22:18.590Z,9.87
2022-09-28T07:24:48.059Z,9.95
2022-09-28T07:27:17.621Z,9.97
2022-09-28T07:29:45.598Z,10.03
2022-09-28T07:32:13.487Z,10.04
2022-09-28T07:34:43.937Z,9.98
2022-09-28T07:37:13.469Z,10.03
2022-09-28T07:39:58.282Z,10.00
2022-09-28T07:42:30.404Z,10.04
2022-09-28T07:44:58.395Z,10.05
2022-09-28T07:47:33.848Z,10.14
2022-09-28T07:50:02.958Z,10.20
2022-09-28T07:52:30.933Z,10.11
2022-09-28T07:55:04.526Z,10.19
2022-09-28T07:57:36.295Z,10.11
2022-09-28T08:00:07.227Z,10.19
2022-09-28T08:02:35.555Z,10.22
2022-09-28T08:05:03.611Z,10.17
2022-09-28T08:07:31.961Z,10.23
2022-09-28T08:09:59.881Z,10.19
2022-09-28T08:12:27.813Z,10.08
2022-09-28T08:14:57.195Z,10.19
2022-09-28T08:17:25.277Z,10.23
2022-09-28T08:20:10.622Z,10.36
2022-09-28T08:22:38.766Z,10.19
2022-09-28T08:25:08.139Z,10.28
2022-09-28T08:27:36.253Z,10.22
2022-09-28T08:30:06.608Z,10.22
2022-09-28T08:32:35.840Z,10.25
2022-09-28T08:35:03.962Z,10.27
2022-09-28T08:37:31.823Z,10.31
2022-09-28T08:39:59.794Z,10.40
2022-09-28T08:42:34.799Z,10.35
2022-09-28T08:45:10.476Z,10.39
2022-09-28T08:48:07.956Z,10.43
2022-09-28T08:50:42.606Z,10.43
2022-09-28T08:53:24.988Z,10.43
2022-09-28T08:55:53.815Z,10.36
2022-09-28T08:58:28.377Z,10.47
2022-09-28T09:00:59.231Z,10.59
2022-09-28T09:03:33.473Z,10.55
2022-09-28T09:06:14.284Z,10.63
2022-09-28T09:09:00.168Z,10.68
2022-09-28T09:11:46.477Z,10.76
2022-09-28T09:14:34.608Z,10.74
2022-09-28T09:17:14.288Z,10.74
2022-09-28T09:19:49.609Z,10.74
2022-09-28T09:22:22.819Z,10.64
2022-09-28T09:24:53.666Z,10.71
2022-09-28T09:27:47.545Z,10.67
2022-09-28T09:30:20.107Z,10.86
2022-09-28T09:33:11.497Z,10.82
2022-09-28T09:35:58.465Z,10.75
2022-09-28T09:38:42.661Z,10.78
2022-09-28T09:41:16.793Z,10.85
2022-09-28T09:44:00.006Z,10.76
2022-09-28T09:46:36.809Z,10.89
2022-09-28T09:49:13.529Z,10.87
2022-09-28T09:51:46.871Z,10.84
2022-09-28T09:54:22.186Z,10.82
2022-09-28T09:56:56.727Z,10.79
2022-09-28T09:59:27.359Z,10.80
2022-09-28T10:01:57.115Z,10.55
2022-09-28T10:04:31.225Z,10.52
2022-09-28T10:07:02.889Z,10.53
2022-09-28T10:09:35.969Z,10.49
2022-09-28T10:12:04.193Z,10.48
2022-09-28T10:14:32.297Z,10.38
2022-09-28T10:17:03.909Z,10.46
2022-09-28T10:19:35.061Z,10.45
2022-09-28T10:22:07.226Z,10.32
2022-09-28T10:24:37.900Z,10.46
2022-09-28T10:27:07.984Z,10.49
2022-09-28T10:29:45.456Z,10.62
2022-09-28T10:32:21.370Z,10.71
2022-09-28T10:34:52.641Z,10.80
2022-09-28T10:37:20.936Z,10.62
2022-09-28T10:39:53.335Z,10.78
2022-09-28T10:42:27.233Z,10.67
2022-09-28T10:44:56.967Z,10.74
2022-09-28T10:47:27.456Z,10.76
2022-09-28T10:49:57.741Z,10.87
2022-09-28T10:52:34.210Z,10.71
2022-09-28T10:55:02.625Z,10.82
2022-09-28T10:57:35.165Z,10.73
2022-09-28T11:00:06.390Z,10.65
2022-09-28T11:02:36.621Z,10.59
2022-09-28T11:05:08.254Z,10.58
2022-09-28T11:07:47.248Z,10.75
2022-09-28T11:10:22.724Z,10.65
2022-09-28T11:12:51.285Z,10.67
2022-09-28T11:15:22.400Z,10.73
2022-09-28T11:17:50.296Z,10.60
2022-09-28T11:20:35.599Z,10.60
2022-09-28T11:23:20.475Z,10.70
2022-09-28T11:26:01.036Z,10.77
2022-09-28T11:28:33.693Z,10.78
2022-09-28T11:31:03.346Z,10.84
2022-09-28T11:33:33.829Z,10.78
2022-09-28T11:36:26.347Z,10.53
2022-09-28T11:39:08.865Z,10.69
2022-09-28T11:42:03.657Z,10.77
2022-09-28T11:44:44.790Z,10.55
2022-09-28T11:47:38.679Z,10.74
2022-09-28T11:50:22.976Z,10.65
2022-09-28T11:53:00.320Z,10.56
2022-09-28T11:55:36.126Z,10.48
2022-09-28T11:58:12.031Z,10.56
2022-09-28T12:00:46.865Z,10.59
2022-09-28T12:03:19.648Z,10.52
2022-09-28T12:05:52.736Z,10.62
2022-09-28T12:08:28.057Z,10.55
2022-09-28T12:11:00.745Z,10.59
2022-09-28T12:13:31.116Z,10.64
2022-09-28T12:16:38.747Z,10.61
2022-09-28T12:18:54.706Z,10.55
2022-09-28T12:21:35.906Z,10.45
2022-09-28T12:24:14.361Z,10.40
2022-09-28T12:26:48.495Z,10.29
2022-09-28T12:29:21.672Z,10.42
2022-09-28T12:31:59.243Z,10.42
2022-09-28T12:34:27.609Z,10.45
2022-09-28T12:37:10.136Z,10.44
2022-09-28T12:39:58.152Z,10.34
2022-09-28T12:42:47.332Z,10.45
2022-09-28T12:45:42.959Z,10.50
2022-09-28T12:48:36.134Z,10.59
2022-09-28T12:51:17.052Z,10.60
2022-09-28T12:54:12.046Z,10.56
2022-09-28T12:56:48.296Z,10.50
2022-09-28T12:59:22.188Z,10.57
2022-09-28T13:01:59.840Z,10.58
2022-09-28T13:04:47.783Z,10.49
2022-09-28T13:07:25.101Z,10.57
2022-09-28T13:10:06.199Z,10.62
2022-09-28T13:12:49.794Z,10.59
2022-09-28T13:15:41.217Z,10.73
2022-09-28T13:18:17.106Z,10.74
2022-09-28T13:21:00.367Z,10.73
2022-09-28T13:23:34.612Z,10.84
2022-09-28T13:26:11.072Z,11.09
2022-09-28T13:28:42.327Z,11.23
2022-09-28T13:31:12.075Z,11.18
2022-09-28T13:33:42.004Z,11.15
2022-09-28T13:36:38.097Z,11.02
2022-09-28T13:39:38.001Z,11.21
2022-09-28T13:42:09.994Z,11.19
2022-09-28T13:44:56.558Z,11.19
2022-09-28T13:47:44.522Z,11.13
2022-09-28T13:50:25.722Z,10.91
2022-09-28T13:53:03.823Z,10.98
2022-09-28T13:55:38.856Z,10.83
2022-09-28T13:58:19.102Z,10.67
2022-09-28T14:00:52.551Z,11.01
2022-09-28T14:03:28.693Z,11.01
2022-09-28T14:06:21.866Z,10.70
2022-09-28T14:09:09.167Z,10.83
2022-09-28T14:11:55.536Z,10.85
2022-09-28T14:14:48.922Z,10.65
2022-09-28T14:17:52.382Z,10.35
2022-09-28T14:20:26.088Z,10.56
2022-09-28T14:23:25.426Z,10.53
2022-09-28T14:26:32.154Z,10.52
2022-09-28T14:29:10.768Z,10.45
2022-09-28T14:31:43.847Z,10.58
2022-09-28T14:34:28.385Z,10.48
2022-09-28T14:37:13.582Z,10.52
2022-09-28T14:40:03.138Z,10.43
2022-09-28T14:42:31.240Z,10.56
2022-09-28T14:45:38.437Z,10.58
2022-09-28T14:48:15.220Z,10.65
2022-09-28T14:50:44.600Z,10.64
2022-09-28T14:53:14.778Z,10.66
2022-09-28T14:55:50.296Z,10.68
2022-09-28T14:58:24.080Z,10.77
2022-09-28T15:01:02.711Z,10.83
2022-09-28T15:03:34.460Z,10.83
2022-09-28T15:06:03.757Z,10.80
2022-09-28T15:08:39.073Z,10.74
2022-09-28T15:11:10.596Z,10.61
2022-09-28T15:13:40.918Z,10.70
2022-09-28T15:16:12.599Z,10.77
2022-09-28T15:19:18.842Z,10.73
2022-09-28T15:21:50.123Z,10.67
2022-09-28T15:24:31.536Z,10.52
2022-09-28T15:26:59.678Z,10.60
2022-09-28T15:29:31.420Z,10.74
2022-09-28T15:31:59.462Z,10.82
2022-09-28T15:34:46.925Z,10.87
2022-09-28T15:37:19.039Z,10.81
2022-09-28T15:39:48.325Z,10.85
2022-09-28T15:42:18.459Z,10.72
2022-09-28T15:45:02.574Z,10.74
2022-09-28T15:47:31.919Z,10.79
2022-09-28T15:50:02.174Z,10.70
2022-09-28T15:52:38.437Z,10.60
2022-09-28T15:55:19.899Z,10.57
2022-09-28T15:57:48.459Z,10.58
2022-09-28T16:00:29.105Z,10.61
2022-09-28T16:03:19.056Z,10.53
2022-09-28T16:05:49.755Z,10.57
2022-09-28T16:08:24.808Z,10.58
2022-09-28T16:11:03.981Z,10.46
2022-09-28T16:13:32.650Z,10.65
2022-09-28T16:16:01.375Z,10.58
2022-09-28T16:18:33.078Z,10.71
2022-09-28T16:21:40.838Z,10.64
2022-09-28T16:24:22.006Z,10.63
2022-09-28T16:27:00.272Z,10.59
2022-09-28T16:29:40.217Z,10.50
2022-09-28T16:32:38.848Z,10.42
2022-09-28T16:35:25.421Z,10.41
2022-09-28T16:38:02.220Z,10.36
2022-09-28T16:40:46.930Z,10.37
2022-09-28T16:43:25.679Z,10.27
2022-09-28T16:45:57.654Z,10.24
2022-09-28T16:48:30.026Z,10.21
2022-09-28T16:51:01.135Z,10.26
2022-09-28T16:53:46.775Z,10.17
2022-09-28T16:56:19.273Z,10.14
2022-09-28T16:58:49.434Z,10.14
2022-09-28T17:01:22.048Z,10.12
2022-09-28T17:03:51.227Z,10.02
2022-09-28T17:06:21.449Z,10.08
2022-09-28T17:08:49.484Z,10.09
2022-09-28T17:11:24.715Z,10.05
2022-09-28T17:13:59.015Z,9.99
2022-09-28T17:19:21.904Z,9.84
2022-09-28T17:21:50.588Z,9.83
2022-09-28T17:24:19.025Z,9.78
2022-09-28T17:26:51.099Z,9.83
2022-09-28T17:29:19.915Z,9.72
2022-09-28T17:31:48.581Z,9.76
2022-09-28T17:34:17.240Z,9.66
2022-09-28T17:36:45.926Z,9.63
2022-09-28T17:39:14.850Z,9.55
2022-09-28T17:41:42.904Z,9.52
2022-09-28T17:44:16.364Z,9.34
2022-09-28T17:46:48.753Z,9.43
2022-09-28T17:49:17.868Z,9.50
2022-09-28T17:51:45.824Z,9.44
2022-09-28T17:54:16.788Z,9.51
2022-09-28T17:56:44.863Z,9.47
2022-09-28T17:59:15.559Z,9.41
2022-09-28T18:01:43.645Z,9.46
2022-09-28T18:04:33.381Z,9.53
2022-09-28T18:07:01.507Z,9.44
2022-09-28T18:09:29.569Z,9.45
2022-09-28T18:12:01.337Z,9.34
2022-09-28T18:14:31.217Z,9.35
2022-09-28T18:16:59.215Z,9.32
2022-09-28T18:19:31.806Z,9.43
2022-09-28T18:22:01.500Z,9.41
2022-09-28T18:24:29.625Z,9.43
2022-09-28T18:26:57.558Z,9.38
2022-09-28T18:29:26.223Z,9.40
2022-09-28T18:31:56.600Z,9.42
2022-09-28T18:34:24.656Z,9.03
2022-09-28T18:36:52.546Z,9.41
2022-09-28T18:39:20.625Z,9.48
2022-09-28T18:41:48.673Z,9.41
2022-09-28T18:44:16.603Z,9.38
2022-09-28T18:46:44.701Z,9.38
2022-09-28T18:49:14.173Z,9.35
2022-09-28T18:51:42.114Z,9.39
2022-09-28T18:54:10.158Z,9.33
2022-09-28T18:56:38.201Z,9.24
2022-09-28T18:59:11.756Z,9.37
2022-09-28T19:01:41.892Z,9.25
2022-09-28T19:04:11.799Z,9.41
2022-09-28T19:06:42.565Z,9.36
2022-09-28T19:09:10.714Z,9.28
2022-09-28T19:11:39.016Z,9.40
2022-09-28T19:14:07.011Z,9.43
2022-09-28T19:16:34.974Z,9.42
2022-09-28T19:19:03.384Z,9.44
2022-09-28T19:21:31.673Z,9.40
2022-09-28T19:24:04.103Z,9.26
2022-09-28T19:26:32.943Z,9.42
2022-09-28T19:29:01.223Z,9.34
2022-09-28T19:31:30.119Z,9.37
2022-09-28T19:33:58.445Z,9.39
2022-09-28T19:36:28.677Z,9.48
2022-09-28T19:38:58.212Z,9.45
2022-09-28T19:41:51.168Z,9.53
2022-09-28T19:44:25.073Z,9.48
2022-09-28T19:46:54.756Z,9.56
2022-09-28T19:49:23.593Z,9.55
2022-09-28T19:52:12.225Z,9.36
2022-09-28T19:54:43.954Z,9.50
2022-09-28T19:57:14.562Z,9.56
2022-09-28T19:59:42.561Z,9.44
2022-09-28T20:02:13.391Z,9.61
2022-09-28T20:04:41.459Z,9.62
2022-09-28T20:07:09.429Z,9.51
2022-09-28T20:09:37.417Z,9.48
2022-09-28T20:12:05.489Z,9.58
2022-09-28T20:14:38.201Z,9.59
2022-09-28T20:17:08.381Z,9.45
2022-09-28T20:19:36.320Z,9.61
2022-09-28T20:22:05.647Z,9.52
2022-09-28T20:24:33.951Z,9.58
2022-09-28T20:27:02.839Z,9.56
2022-09-28T20:29:33.454Z,9.57
2022-09-28T20:32:04.375Z,9.63
2022-09-28T20:34:33.656Z,9.57
2022-09-28T20:37:01.692Z,9.45
2022-09-28T20:39:31.360Z,9.47
2022-09-28T20:41:59.369Z,9.55
2022-09-28T20:44:27.444Z,9.47
2022-09-28T20:46:56.714Z,9.56
2022-09-28T20:49:27.265Z,9.57
2022-09-28T20:51:55.377Z,9.56
2022-09-28T20:54:23.491Z,9.52
2022-09-28T20:56:51.433Z,9.55
2022-09-28T20:59:20.339Z,9.59
2022-09-28T21:01:48.402Z,9.52
2022-09-28T21:04:16.491Z,9.43
2022-09-28T21:06:46.144Z,9.26
2022-09-28T21:09:14.122Z,9.47
2022-09-28T21:11:42.080Z,9.45
2022-09-28T21:14:11.355Z,9.37
2022-09-28T21:16:40.668Z,9.51
2022-09-28T21:19:08.711Z,9.43
2022-09-28T21:21:36.637Z,9.47
2022-09-28T21:24:06.274Z,9.44
2022-09-28T21:26:35.150Z,9.42
2022-09-28T21:29:05.965Z,9.47
2022-09-28T21:31:39.211Z,9.45
2022-09-28T21:34:07.914Z,9.53
2022-09-28T21:36:40.363Z,9.50
2022-09-28T21:39:10.638Z,9.47
2022-09-28T21:41:39.019Z,9.50
2022-09-28T21:44:07.401Z,9.52
2022-09-28T21:46:36.519Z,9.53
2022-09-28T21:49:06.404Z,9.51
2022-09-28T21:51:35.130Z,9.19
2022-09-28T21:54:03.211Z,9.29
2022-09-28T21:56:32.674Z,9.48
2022-09-28T21:59:01.418Z,9.12
2022-09-28T22:01:29.490Z,9.37
2022-09-28T22:03:57.854Z,9.35
2022-09-28T22:06:28.332Z,9.35
2022-09-28T22:08:56.339Z,9.34
2022-09-28T22:11:26.150Z,9.31
2022-09-28T22:13:57.494Z,9.39
2022-09-28T22:16:28.061Z,9.31
2022-09-28T22:18:56.524Z,8.90
2022-09-28T22:21:26.001Z,9.37
2022-09-28T22:23:54.362Z,9.32
2022-09-28T22:26:24.960Z,9.26
2022-09-28T22:28:56.488Z,9.39
2022-09-28T22:31:26.532Z,8.88
2022-09-28T22:33:54.976Z,9.39
2022-09-28T22:36:23.146Z,9.36
2022-09-28T22:38:51.223Z,9.36
2022-09-28T22:41:21.208Z,9.32
2022-09-28T22:43:50.115Z,9.34
2022-09-28T22:46:22.818Z,9.24
2022-09-28T22:48:52.684Z,9.31
2022-09-28T22:51:21.517Z,9.28
2022-09-28T22:53:49.561Z,8.97
2022-09-28T22:56:19.193Z,9.20
2022-09-28T22:58:48.005Z,9.24
2022-09-28T23:01:18.615Z,9.21
2022-09-28T23:03:49.256Z,9.22
2022-09-28T23:06:18.999Z,9.22
2022-09-28T23:08:47.797Z,8.84
2022-09-28T23:11:16.162Z,9.13
2022-09-28T23:13:44.550Z,9.12
2022-09-28T23:16:14.859Z,9.17
2022-09-28T23:18:43.785Z,9.15
2022-09-28T23:21:16.331Z,9.18
2022-09-28T23:23:45.156Z,9.08
2022-09-28T23:26:14.696Z,9.08
2022-09-28T23:28:43.031Z,9.15
2022-09-28T23:31:12.329Z,9.18
2022-09-28T23:33:40.589Z,8.99
2022-09-28T23:36:09.736Z,8.98
2022-09-28T23:38:39.555Z,9.14
2022-09-28T23:41:07.886Z,9.07
2022-09-28T23:43:36.300Z,9.12
2022-09-28T23:46:04.851Z,9.07
2022-09-28T23:48:33.159Z,9.07
2022-09-28T23:51:01.420Z,9.06
2022-09-28T23:53:30.078Z,9.14
2022-09-28T23:55:59.693Z,8.95
2022-09-28T23:58:28.366Z,8.94
